createdAt,value
2019-05-22T00:00:16.051Z,40.49
2019-05-22T00:01:16.032Z,41.08
2019-05-22T00:02:16.028Z,40.48
2019-05-22T00:03:16.021Z,40.36
2019-05-22T00:04:16.023Z,40.46
2019-05-22T00:05:16.012Z,40.46
2019-05-22T00:06:15.992Z,40.44
2019-05-22T00:07:16.003Z,40.43
2019-05-22T00:08:15.986Z,40.47
2019-05-22T00:09:15.976Z,40.53
2019-05-22T00:10:15.969Z,40.41
2019-05-22T00:11:15.967Z,40.41
2019-05-22T00:12:15.954Z,40.44
2019-05-22T00:13:15.945Z,40.44
2019-05-22T00:14:15.943Z,40.35
2019-05-22T00:15:16.092Z,40.46
2019-05-22T00:16:15.928Z,40.37
2019-05-22T00:17:15.915Z,40.44
2019-05-22T00:18:15.906Z,40.47
2019-05-22T00:19:15.902Z,40.45
2019-05-22T00:20:15.899Z,40.46
2019-05-22T00:21:15.903Z,40.48
2019-05-22T00:22:15.902Z,40.42
2019-05-22T00:23:15.889Z,40.51
2019-05-22T00:24:15.884Z,40.48
2019-05-22T00:25:15.910Z,40.45
2019-05-22T00:26:15.884Z,40.40
2019-05-22T00:27:15.879Z,40.47
2019-05-22T00:28:15.870Z,40.43
2019-05-22T00:29:15.864Z,40.40
2019-05-22T00:30:15.857Z,40.45
2019-05-22T00:31:15.849Z,40.56
2019-05-22T00:32:15.928Z,40.54
2019-05-22T00:33:15.836Z,40.44
2019-05-22T00:34:15.821Z,40.51
2019-05-22T00:35:15.811Z,40.47
2019-05-22T00:36:15.802Z,40.49
2019-05-22T00:37:15.799Z,40.41
2019-05-22T00:38:15.799Z,40.45
2019-05-22T00:39:15.784Z,40.61
2019-05-22T00:40:15.779Z,40.48
2019-05-22T00:41:15.769Z,40.43
2019-05-22T00:42:15.762Z,40.46
2019-05-22T00:43:15.768Z,40.48
2019-05-22T00:44:15.746Z,40.45
2019-05-22T00:45:15.742Z,40.42
2019-05-22T00:46:15.729Z,40.52
2019-05-22T00:47:15.727Z,40.47
2019-05-22T00:48:15.714Z,40.63
2019-05-22T00:49:15.708Z,40.42
2019-05-22T00:50:15.697Z,40.52
2019-05-22T00:51:15.686Z,40.44
2019-05-22T00:52:15.683Z,40.44
2019-05-22T00:53:15.674Z,40.42
2019-05-22T00:54:15.675Z,40.42
2019-05-22T00:55:15.664Z,40.48
2019-05-22T00:56:15.653Z,40.47
2019-05-22T00:57:15.642Z,40.43
2019-05-22T00:58:15.639Z,40.56
2019-05-22T00:59:15.630Z,40.47
2019-05-22T01:00:15.622Z,40.50
2019-05-22T01:01:15.608Z,40.48
2019-05-22T01:02:15.623Z,40.45
2019-05-22T01:03:15.615Z,40.42
2019-05-22T01:04:15.609Z,40.46
2019-05-22T01:05:15.614Z,40.44
2019-05-22T01:06:15.591Z,40.45
2019-05-22T01:07:15.582Z,40.45
2019-05-22T01:08:15.591Z,40.45
2019-05-22T01:09:15.592Z,40.39
2019-05-22T01:10:15.578Z,40.53
2019-05-22T01:11:15.583Z,40.55
2019-05-22T01:12:15.567Z,40.46
2019-05-22T01:13:15.560Z,40.54
2019-05-22T01:14:15.570Z,40.44
2019-05-22T01:15:15.565Z,40.43
2019-05-22T01:16:15.564Z,40.47
2019-05-22T01:17:15.552Z,40.67
2019-05-22T01:18:15.540Z,40.48
2019-05-22T01:19:15.536Z,40.46
2019-05-22T01:20:15.524Z,40.44
2019-05-22T01:21:15.528Z,40.44
2019-05-22T01:22:15.510Z,40.38
2019-05-22T01:23:15.502Z,40.43
2019-05-22T01:24:15.492Z,40.50
2019-05-22T01:25:15.483Z,40.42
2019-05-22T01:26:15.498Z,40.51
2019-05-22T01:27:15.485Z,40.56
2019-05-22T01:28:15.496Z,40.48
2019-05-22T01:29:15.484Z,40.46
2019-05-22T01:30:15.485Z,40.43
2019-05-22T01:31:15.520Z,40.49
2019-05-22T01:32:15.471Z,40.50
2019-05-22T01:33:15.454Z,40.45
2019-05-22T01:34:15.449Z,40.44
2019-05-22T01:35:15.449Z,40.51
2019-05-22T01:36:15.443Z,40.51
2019-05-22T01:37:15.447Z,40.46
2019-05-22T01:38:15.433Z,40.53
2019-05-22T01:39:15.477Z,40.48
2019-05-22T01:40:15.414Z,40.50
2019-05-22T01:41:15.407Z,40.50
2019-05-22T01:42:15.612Z,40.45
2019-05-22T01:43:15.388Z,40.49
2019-05-22T01:44:15.392Z,40.53
2019-05-22T01:45:15.388Z,40.49
2019-05-22T01:46:15.382Z,40.87
2019-05-22T01:47:15.373Z,41.03
2019-05-22T01:48:15.389Z,40.55
2019-05-22T01:49:15.367Z,40.47
2019-05-22T01:50:15.358Z,40.43
2019-05-22T01:51:15.356Z,40.52
2019-05-22T01:52:15.338Z,40.50
2019-05-22T01:53:15.336Z,40.49
2019-05-22T01:54:15.320Z,40.45
2019-05-22T01:55:15.322Z,40.57
2019-05-22T01:56:15.317Z,40.48
2019-05-22T01:57:15.300Z,40.46
2019-05-22T01:58:15.291Z,40.58
2019-05-22T01:59:15.288Z,40.48
2019-05-22T02:00:15.274Z,40.56
2019-05-22T02:01:15.271Z,40.47
2019-05-22T02:02:15.257Z,40.52
2019-05-22T02:03:15.247Z,40.58
2019-05-22T02:04:15.264Z,40.65
2019-05-22T02:05:15.240Z,40.47
2019-05-22T02:06:15.226Z,40.51
2019-05-22T02:07:15.217Z,40.53
2019-05-22T02:08:15.208Z,40.51
2019-05-22T02:09:15.198Z,40.52
2019-05-22T02:10:15.201Z,40.52
2019-05-22T02:11:15.184Z,40.51
2019-05-22T02:12:15.176Z,40.51
2019-05-22T02:13:15.169Z,40.51
2019-05-22T02:14:15.159Z,40.51
2019-05-22T02:15:15.154Z,40.51
2019-05-22T02:16:15.167Z,40.50
2019-05-22T02:17:15.157Z,40.49
2019-05-22T02:18:15.147Z,40.47
2019-05-22T02:19:15.140Z,40.53
2019-05-22T02:20:15.141Z,40.49
2019-05-22T02:21:15.138Z,40.56
2019-05-22T02:22:15.129Z,40.53
2019-05-22T02:23:15.126Z,40.52
2019-05-22T02:24:15.123Z,40.45
2019-05-22T02:25:15.123Z,40.50
2019-05-22T02:26:15.103Z,40.50
2019-05-22T02:27:15.101Z,40.47
2019-05-22T02:28:15.100Z,40.53
2019-05-22T02:29:15.094Z,40.51
2019-05-22T02:30:15.087Z,40.50
2019-05-22T02:31:15.092Z,40.50
2019-05-22T02:32:15.071Z,40.51
2019-05-22T02:33:15.066Z,40.49
2019-05-22T02:34:15.097Z,40.51
2019-05-22T02:35:15.047Z,40.52
2019-05-22T02:36:15.049Z,40.47
2019-05-22T02:37:15.054Z,40.51
2019-05-22T02:38:15.047Z,40.69
2019-05-22T02:39:15.039Z,40.52
2019-05-22T02:40:15.038Z,40.55
2019-05-22T02:41:15.037Z,40.54
2019-05-22T02:42:15.045Z,40.55
2019-05-22T02:43:15.003Z,41.75
2019-05-22T02:44:14.994Z,40.65
2019-05-22T02:45:14.985Z,40.65
2019-05-22T02:46:14.981Z,40.51
2019-05-22T02:47:19.834Z,40.58
2019-05-22T02:48:15.964Z,40.51
2019-05-22T02:49:14.953Z,40.49
2019-05-22T02:50:14.961Z,40.55
2019-05-22T02:51:14.941Z,40.62
2019-05-22T02:52:14.938Z,40.66
2019-05-22T02:53:14.956Z,40.55
2019-05-22T02:54:14.909Z,40.57
2019-05-22T02:55:14.919Z,40.83
2019-05-22T02:56:14.915Z,40.48
2019-05-22T02:57:14.914Z,40.62
2019-05-22T02:58:14.906Z,40.56
2019-05-22T02:59:14.888Z,40.57
2019-05-22T03:00:14.885Z,40.62
2019-05-22T03:01:14.874Z,40.62
2019-05-22T03:02:14.877Z,40.92
2019-05-22T03:03:14.858Z,40.52
2019-05-22T03:04:14.861Z,40.54
2019-05-22T03:05:14.841Z,40.59
2019-05-22T03:06:14.837Z,40.68
2019-05-22T03:07:14.831Z,40.99
2019-05-22T03:08:14.823Z,40.58
2019-05-22T03:09:14.899Z,41.04
2019-05-22T03:10:14.806Z,40.56
2019-05-22T03:11:14.798Z,40.74
2019-05-22T03:12:14.801Z,40.65
2019-05-22T03:13:14.798Z,40.82
2019-05-22T03:14:14.812Z,40.78
2019-05-22T03:15:14.796Z,40.70
2019-05-22T03:16:14.792Z,40.69
2019-05-22T03:17:14.779Z,40.74
2019-05-22T03:18:14.773Z,40.61
2019-05-22T03:19:14.775Z,41.05
2019-05-22T03:20:14.784Z,40.73
2019-05-22T03:21:14.784Z,40.61
2019-05-22T03:22:14.773Z,40.69
2019-05-22T03:23:14.785Z,40.62
2019-05-22T03:24:14.781Z,40.65
2019-05-22T03:25:14.774Z,40.65
2019-05-22T03:26:14.781Z,40.78
2019-05-22T03:27:14.758Z,40.73
2019-05-22T03:28:14.752Z,40.67
2019-05-22T03:29:14.747Z,40.62
2019-05-22T03:30:14.751Z,40.91
2019-05-22T03:31:14.747Z,40.79
2019-05-22T03:32:14.740Z,40.67
2019-05-22T03:33:14.743Z,40.62
2019-05-22T03:34:14.721Z,40.71
2019-05-22T03:35:14.731Z,40.69
2019-05-22T03:36:14.702Z,40.84
2019-05-22T03:37:14.764Z,40.75
2019-05-22T03:38:14.691Z,40.76
2019-05-22T03:39:14.687Z,40.66
2019-05-22T03:40:14.681Z,40.74
2019-05-22T03:41:14.674Z,40.79
2019-05-22T03:42:14.669Z,40.72
2019-05-22T03:43:14.671Z,40.65
2019-05-22T03:44:14.653Z,40.83
2019-05-22T03:45:14.653Z,40.99
2019-05-22T03:46:14.649Z,40.91
2019-05-22T03:47:14.635Z,41.09
2019-05-22T03:48:14.639Z,40.58
2019-05-22T03:49:29.292Z,40.95
2019-05-22T03:50:15.613Z,40.82
2019-05-22T03:51:14.646Z,40.75
2019-05-22T03:52:14.617Z,40.65
2019-05-22T03:53:14.626Z,40.69
2019-05-22T03:54:14.604Z,41.39
2019-05-22T03:55:14.593Z,41.12
2019-05-22T03:56:14.607Z,40.98
2019-05-22T03:57:14.607Z,40.91
2019-05-22T03:58:14.586Z,40.97
2019-05-22T03:59:14.588Z,41.29
2019-05-22T04:00:14.563Z,40.97
2019-05-22T04:01:14.559Z,41.04
2019-05-22T04:02:14.574Z,40.99
2019-05-22T04:03:14.559Z,41.04
2019-05-22T04:04:14.557Z,41.09
2019-05-22T04:05:14.542Z,40.80
2019-05-22T04:06:14.546Z,40.86
2019-05-22T04:07:14.535Z,40.75
2019-05-22T04:08:14.532Z,40.92
2019-05-22T04:09:14.507Z,40.94
2019-05-22T04:10:14.507Z,40.75
2019-05-22T04:11:14.491Z,41.20
2019-05-22T04:12:14.488Z,41.05
2019-05-22T04:13:14.512Z,41.20
2019-05-22T04:14:14.494Z,41.32
2019-05-22T04:15:14.593Z,40.93
2019-05-22T04:16:14.499Z,40.98
2019-05-22T04:17:14.489Z,40.87
2019-05-22T04:18:14.492Z,40.79
2019-05-22T04:19:14.475Z,40.82
2019-05-22T04:20:14.466Z,40.76
2019-05-22T04:21:14.484Z,40.81
2019-05-22T04:22:14.466Z,40.79
2019-05-22T04:23:14.447Z,40.90
2019-05-22T04:24:14.442Z,41.07
2019-05-22T04:25:14.430Z,41.01
2019-05-22T04:26:14.434Z,41.00
2019-05-22T04:27:14.419Z,41.35
2019-05-22T04:28:14.411Z,42.05
2019-05-22T04:29:14.404Z,40.84
2019-05-22T04:30:14.408Z,41.02
2019-05-22T04:31:14.400Z,40.94
2019-05-22T04:32:14.384Z,41.12
2019-05-22T04:33:14.374Z,40.76
2019-05-22T04:34:14.357Z,41.27
2019-05-22T04:35:14.362Z,41.19
2019-05-22T04:36:14.354Z,41.06
2019-05-22T04:37:14.387Z,40.84
2019-05-22T04:38:14.369Z,41.05
2019-05-22T04:39:14.361Z,41.11
2019-05-22T04:40:14.351Z,41.36
2019-05-22T04:41:14.346Z,41.29
2019-05-22T04:42:14.337Z,41.17
2019-05-22T04:43:14.353Z,41.13
2019-05-22T04:44:14.332Z,41.72
2019-05-22T04:45:14.317Z,41.26
2019-05-22T04:46:14.311Z,40.81
2019-05-22T04:47:14.305Z,40.90
2019-05-22T04:48:14.390Z,40.98
2019-05-22T04:49:14.300Z,40.76
2019-05-22T04:50:14.271Z,40.88
2019-05-22T04:51:14.279Z,40.85
2019-05-22T04:52:14.251Z,41.28
2019-05-22T04:53:14.253Z,41.10
2019-05-22T04:54:14.252Z,41.29
2019-05-22T04:55:14.234Z,40.84
2019-05-22T04:56:14.224Z,40.99
2019-05-22T04:57:14.229Z,41.35
2019-05-22T04:58:14.215Z,40.88
2019-05-22T04:59:14.284Z,41.26
2019-05-22T05:00:14.191Z,41.02
2019-05-22T05:01:14.187Z,41.02
2019-05-22T05:02:14.176Z,41.04
2019-05-22T05:03:14.172Z,41.20
2019-05-22T05:04:14.158Z,40.93
2019-05-22T05:05:14.161Z,41.25
2019-05-22T05:06:14.182Z,41.26
2019-05-22T05:07:14.131Z,41.15
2019-05-22T05:08:14.133Z,40.99
2019-05-22T05:09:14.131Z,41.55
2019-05-22T05:10:14.120Z,41.02
2019-05-22T05:11:14.103Z,41.16
2019-05-22T05:12:14.094Z,41.72
2019-05-22T05:13:14.088Z,41.15
2019-05-22T05:14:14.083Z,41.06
2019-05-22T05:15:14.072Z,41.02
2019-05-22T05:16:14.070Z,41.22
2019-05-22T05:17:14.059Z,41.62
2019-05-22T05:18:14.053Z,41.13
2019-05-22T05:19:14.037Z,40.97
2019-05-22T05:20:22.173Z,41.11
2019-05-22T05:21:15.029Z,41.72
2019-05-22T05:22:14.035Z,41.10
2019-05-22T05:23:14.065Z,41.20
2019-05-22T05:24:14.041Z,41.95
2019-05-22T05:25:14.029Z,41.01
2019-05-22T05:26:14.018Z,41.43
2019-05-22T05:27:14.080Z,41.58
2019-05-22T05:28:14.001Z,41.75
2019-05-22T05:29:13.996Z,41.69
2019-05-22T05:30:14.000Z,41.49
2019-05-22T05:31:13.979Z,41.00
2019-05-22T05:32:13.995Z,41.11
2019-05-22T05:33:14.000Z,41.46
2019-05-22T05:34:13.962Z,41.28
2019-05-22T05:35:13.949Z,43.18
2019-05-22T05:36:13.940Z,41.18
2019-05-22T05:37:13.944Z,40.86
2019-05-22T05:38:13.932Z,41.22
2019-05-22T05:39:13.916Z,41.00
2019-05-22T05:40:13.909Z,41.09
2019-05-22T05:41:13.903Z,41.87
2019-05-22T05:42:13.899Z,41.32
2019-05-22T05:43:13.887Z,41.00
2019-05-22T05:44:13.877Z,41.64
2019-05-22T05:45:13.964Z,41.30
2019-05-22T05:46:13.877Z,40.87
2019-05-22T05:47:13.854Z,41.95
2019-05-22T05:48:13.843Z,41.50
2019-05-22T05:49:13.846Z,42.09
2019-05-22T05:50:13.869Z,41.10
2019-05-22T05:51:13.827Z,40.96
2019-05-22T05:52:13.838Z,41.16
2019-05-22T05:53:13.821Z,41.32
2019-05-22T05:54:13.821Z,41.46
2019-05-22T05:55:13.809Z,41.02
2019-05-22T05:56:13.820Z,41.58
2019-05-22T05:57:13.794Z,41.61
2019-05-22T05:58:13.786Z,41.39
2019-05-22T05:59:13.785Z,41.28
2019-05-22T06:00:13.766Z,41.72
2019-05-22T06:01:13.787Z,41.08
2019-05-22T06:02:13.779Z,41.35
2019-05-22T06:03:13.765Z,41.20
2019-05-22T06:04:13.761Z,41.14
2019-05-22T06:05:13.765Z,41.47
2019-05-22T06:06:13.757Z,41.43
2019-05-22T06:07:13.767Z,41.16
2019-05-22T06:08:13.737Z,41.17
2019-05-22T06:09:13.730Z,41.18
2019-05-22T06:10:13.739Z,41.31
2019-05-22T06:11:13.722Z,41.14
2019-05-22T06:12:13.715Z,41.03
2019-05-22T06:13:13.731Z,41.28
2019-05-22T06:14:13.688Z,41.79
2019-05-22T06:15:13.689Z,41.24
2019-05-22T06:16:13.688Z,41.28
2019-05-22T06:17:13.684Z,41.18
2019-05-22T06:18:13.659Z,41.26
2019-05-22T06:19:13.667Z,41.33
2019-05-22T06:20:13.640Z,41.48
2019-05-22T06:21:13.636Z,41.45
2019-05-22T06:22:13.623Z,41.60
2019-05-22T06:23:13.618Z,41.23
2019-05-22T06:24:13.611Z,41.04
2019-05-22T06:25:13.711Z,40.93
2019-05-22T06:26:13.596Z,41.51
2019-05-22T06:27:13.587Z,40.96
2019-05-22T06:28:13.588Z,41.25
2019-05-22T06:29:13.581Z,41.16
2019-05-22T06:30:13.559Z,41.26
2019-05-22T06:31:13.556Z,41.48
2019-05-22T06:32:13.579Z,41.37
2019-05-22T06:33:13.623Z,41.30
2019-05-22T06:34:13.536Z,41.24
2019-05-22T06:35:13.571Z,41.17
2019-05-22T06:36:13.521Z,41.37
2019-05-22T06:37:13.529Z,41.07
2019-05-22T06:38:13.540Z,41.89
2019-05-22T06:39:13.528Z,41.09
2019-05-22T06:40:13.507Z,41.39
2019-05-22T06:41:13.501Z,41.05
2019-05-22T06:42:13.493Z,41.04
2019-05-22T06:43:13.501Z,41.70
2019-05-22T06:44:13.479Z,41.16
2019-05-22T06:45:13.471Z,41.48
2019-05-22T06:46:13.486Z,40.99
2019-05-22T06:47:13.467Z,41.24
2019-05-22T06:48:13.445Z,41.43
2019-05-22T06:49:13.441Z,42.37
2019-05-22T06:50:13.427Z,41.37
2019-05-22T06:51:19.395Z,40.89
2019-05-22T06:52:14.407Z,41.86
2019-05-22T06:53:13.407Z,41.43
2019-05-22T06:54:13.403Z,41.46
2019-05-22T06:55:13.405Z,41.44
2019-05-22T06:56:13.389Z,40.92
2019-05-22T06:57:13.455Z,41.40
2019-05-22T06:58:13.373Z,41.24
2019-05-22T06:59:13.515Z,41.49
2019-05-22T07:00:17.867Z,41.30
2019-05-22T07:01:13.366Z,41.12
2019-05-22T07:02:13.414Z,41.31
2019-05-22T07:03:13.337Z,41.09
2019-05-22T07:04:13.329Z,41.40
2019-05-22T07:05:13.349Z,41.09
2019-05-22T07:06:13.323Z,41.08
2019-05-22T07:07:13.316Z,41.33
2019-05-22T07:08:13.302Z,41.37
2019-05-22T07:09:13.290Z,41.18
2019-05-22T07:10:13.375Z,41.08
2019-05-22T07:11:13.288Z,41.43
2019-05-22T07:12:13.269Z,41.57
2019-05-22T07:13:13.260Z,41.60
2019-05-22T07:14:13.284Z,41.40
2019-05-22T07:15:13.248Z,41.34
2019-05-22T07:16:13.261Z,40.86
2019-05-22T07:17:13.238Z,41.03
2019-05-22T07:18:13.614Z,41.34
2019-05-22T07:19:13.212Z,41.03
2019-05-22T07:20:13.276Z,41.81
2019-05-22T07:21:13.225Z,41.18
2019-05-22T07:22:13.197Z,41.36
2019-05-22T07:23:13.191Z,41.11
2019-05-22T07:24:13.203Z,41.03
2019-05-22T07:25:13.172Z,41.48
2019-05-22T07:26:13.175Z,41.57
2019-05-22T07:27:13.193Z,41.46
2019-05-22T07:28:13.168Z,41.34
2019-05-22T07:29:13.169Z,41.41
2019-05-22T07:30:13.148Z,41.32
2019-05-22T07:31:13.222Z,41.41
2019-05-22T07:32:13.241Z,41.16
2019-05-22T07:33:13.162Z,41.27
2019-05-22T07:34:13.139Z,40.95
2019-05-22T07:35:13.141Z,41.15
2019-05-22T07:36:16.751Z,41.12
2019-05-22T07:37:13.097Z,41.04
2019-05-22T07:38:13.095Z,41.54
2019-05-22T07:39:13.083Z,41.00
2019-05-22T07:40:13.078Z,41.40
2019-05-22T07:41:13.071Z,41.36
2019-05-22T07:42:13.060Z,40.90
2019-05-22T07:43:13.073Z,40.95
2019-05-22T07:44:13.075Z,41.27
2019-05-22T07:45:13.061Z,41.96
2019-05-22T07:46:13.064Z,41.15
2019-05-22T07:47:13.039Z,41.03
2019-05-22T07:48:13.759Z,41.64
2019-05-22T07:49:13.037Z,41.17
2019-05-22T07:50:13.017Z,41.09
2019-05-22T07:51:13.010Z,40.96
2019-05-22T07:52:13.003Z,41.42
2019-05-22T07:53:12.996Z,40.93
2019-05-22T07:54:12.990Z,40.84
2019-05-22T07:55:12.979Z,40.93
2019-05-22T07:56:13.008Z,41.14
2019-05-22T07:57:12.971Z,41.77
2019-05-22T07:58:12.959Z,40.94
2019-05-22T07:59:12.971Z,40.90
2019-05-22T08:00:12.938Z,41.07
2019-05-22T08:01:12.931Z,41.15
2019-05-22T08:02:12.924Z,41.06
2019-05-22T08:03:12.917Z,40.91
2019-05-22T08:04:12.910Z,41.15
2019-05-22T08:05:12.924Z,41.07
2019-05-22T08:06:12.891Z,41.39
2019-05-22T08:07:12.885Z,41.54
2019-05-22T08:08:12.882Z,41.36
2019-05-22T08:09:12.874Z,41.13
2019-05-22T08:10:12.873Z,41.11
2019-05-22T08:11:12.859Z,41.01
2019-05-22T08:12:12.873Z,41.11
2019-05-22T08:13:12.865Z,41.10
2019-05-22T08:14:12.855Z,41.42
2019-05-22T08:15:12.862Z,41.55
2019-05-22T08:16:12.843Z,40.77
2019-05-22T08:17:12.831Z,41.17
2019-05-22T08:18:12.847Z,40.85
2019-05-22T08:19:12.830Z,40.81
2019-05-22T08:20:12.812Z,41.06
2019-05-22T08:21:12.813Z,40.92
2019-05-22T08:22:12.800Z,40.87
2019-05-22T08:23:12.789Z,41.09
2019-05-22T08:24:12.819Z,41.36
2019-05-22T08:25:12.766Z,41.38
2019-05-22T08:26:12.780Z,41.35
2019-05-22T08:27:12.772Z,41.39
2019-05-22T08:28:12.765Z,41.10
2019-05-22T08:29:12.758Z,40.93
2019-05-22T08:30:12.743Z,41.03
2019-05-22T08:31:12.736Z,40.78
2019-05-22T08:32:12.732Z,40.95
2019-05-22T08:33:12.726Z,41.22
2019-05-22T08:34:12.720Z,41.16
2019-05-22T08:35:12.713Z,41.41
2019-05-22T08:36:12.806Z,40.96
2019-05-22T08:37:12.695Z,41.18
2019-05-22T08:38:12.690Z,40.84
2019-05-22T08:39:12.677Z,40.97
2019-05-22T08:40:12.710Z,40.94
2019-05-22T08:41:12.704Z,41.25
2019-05-22T08:42:12.698Z,41.02
2019-05-22T08:43:12.799Z,40.88
2019-05-22T08:44:16.553Z,41.39
2019-05-22T08:45:12.666Z,40.96
2019-05-22T08:46:12.679Z,41.85
2019-05-22T08:47:12.660Z,41.03
2019-05-22T08:48:12.669Z,41.19
2019-05-22T08:49:12.729Z,40.99
2019-05-22T08:50:12.653Z,41.00
2019-05-22T08:51:12.656Z,40.91
2019-05-22T08:52:23.127Z,40.72
2019-05-22T08:53:13.630Z,40.93
2019-05-22T08:54:12.628Z,40.85
2019-05-22T08:55:12.611Z,40.94
2019-05-22T08:56:12.605Z,41.06
2019-05-22T08:57:12.598Z,41.30
2019-05-22T08:58:12.639Z,40.73
2019-05-22T08:59:19.435Z,40.99
2019-05-22T09:00:13.581Z,41.10
2019-05-22T09:01:12.592Z,40.83
2019-05-22T09:02:12.557Z,41.15
2019-05-22T09:03:12.564Z,41.23
2019-05-22T09:04:12.681Z,41.24
2019-05-22T09:05:12.601Z,41.45
2019-05-22T09:06:12.552Z,41.05
2019-05-22T09:07:12.521Z,41.02
2019-05-22T09:08:12.545Z,41.12
2019-05-22T09:09:12.536Z,41.01
2019-05-22T09:10:12.521Z,41.31
2019-05-22T09:11:12.538Z,41.36
2019-05-22T09:12:12.516Z,41.77
2019-05-22T09:13:12.529Z,41.03
2019-05-22T09:14:12.501Z,40.99
2019-05-22T09:15:12.502Z,41.40
2019-05-22T09:16:12.516Z,42.04
2019-05-22T09:17:12.479Z,41.03
2019-05-22T09:18:12.528Z,40.90
2019-05-22T09:19:12.729Z,41.19
2019-05-22T09:20:12.466Z,41.29
2019-05-22T09:21:12.453Z,40.83
2019-05-22T09:22:12.487Z,40.77
2019-05-22T09:23:12.436Z,41.08
2019-05-22T09:24:12.434Z,41.08
2019-05-22T09:25:12.768Z,41.03
2019-05-22T09:26:12.442Z,41.04
2019-05-22T09:27:12.428Z,41.43
2019-05-22T09:28:12.419Z,40.88
2019-05-22T09:29:12.410Z,41.29
2019-05-22T09:30:12.399Z,41.63
2019-05-22T09:31:12.436Z,40.91
2019-05-22T09:32:12.380Z,42.20
2019-05-22T09:33:12.436Z,41.23
2019-05-22T09:34:12.368Z,41.18
2019-05-22T09:35:12.360Z,41.32
2019-05-22T09:36:12.345Z,41.90
2019-05-22T09:37:12.339Z,41.22
2019-05-22T09:38:12.350Z,41.04
2019-05-22T09:39:12.326Z,40.66
2019-05-22T09:40:12.318Z,41.02
2019-05-22T09:41:12.362Z,41.07
2019-05-22T09:42:12.309Z,40.85
2019-05-22T09:43:12.318Z,40.99
2019-05-22T09:44:15.283Z,40.95
2019-05-22T09:45:12.280Z,40.84
2019-05-22T09:46:12.269Z,41.31
2019-05-22T09:47:12.299Z,41.09
2019-05-22T09:48:12.257Z,41.02
2019-05-22T09:49:12.258Z,40.93
2019-05-22T09:50:12.248Z,41.47
2019-05-22T09:51:12.257Z,41.04
2019-05-22T09:52:12.232Z,42.17
2019-05-22T09:53:12.232Z,41.67
2019-05-22T09:54:12.225Z,41.46
2019-05-22T09:55:12.213Z,41.34
2019-05-22T09:56:12.204Z,41.61
2019-05-22T09:57:12.287Z,41.05
2019-05-22T09:58:12.188Z,41.64
2019-05-22T09:59:12.214Z,41.91
2019-05-22T10:00:12.182Z,42.38
2019-05-22T10:01:12.301Z,41.87
2019-05-22T10:02:12.157Z,41.51
2019-05-22T10:03:12.153Z,41.14
2019-05-22T10:04:12.143Z,41.17
2019-05-22T10:05:12.145Z,41.43
2019-05-22T10:06:12.129Z,41.55
2019-05-22T10:07:12.120Z,41.32
2019-05-22T10:08:12.254Z,41.14
2019-05-22T10:09:12.103Z,41.48
2019-05-22T10:10:12.120Z,41.02
2019-05-22T10:11:12.108Z,41.26
2019-05-22T10:12:12.094Z,41.76
2019-05-22T10:13:12.184Z,41.67
2019-05-22T10:14:12.081Z,41.51
2019-05-22T10:15:12.074Z,41.49
2019-05-22T10:16:12.102Z,41.77
2019-05-22T10:17:12.078Z,41.33
2019-05-22T10:18:12.059Z,41.63
2019-05-22T10:19:12.055Z,41.27
2019-05-22T10:20:12.051Z,40.94
2019-05-22T10:21:12.053Z,41.20
2019-05-22T10:22:12.034Z,41.70
2019-05-22T10:23:15.945Z,40.92
2019-05-22T10:24:12.030Z,40.69
2019-05-22T10:25:16.445Z,41.43
2019-05-22T10:26:13.020Z,41.00
2019-05-22T10:27:12.018Z,40.98
2019-05-22T10:28:12.020Z,41.68
2019-05-22T10:29:12.000Z,40.69
2019-05-22T10:30:11.979Z,40.81
2019-05-22T10:31:13.774Z,41.06
2019-05-22T10:32:11.970Z,41.69
2019-05-22T10:33:11.998Z,41.63
2019-05-22T10:34:11.949Z,40.94
2019-05-22T10:35:11.946Z,41.11
2019-05-22T10:36:11.934Z,40.73
2019-05-22T10:37:11.957Z,40.84
2019-05-22T10:38:11.926Z,40.94
2019-05-22T10:39:11.930Z,41.09
2019-05-22T10:40:11.901Z,42.30
2019-05-22T10:41:11.893Z,40.99
2019-05-22T10:42:11.894Z,40.91
2019-05-22T10:43:11.892Z,41.00
2019-05-22T10:44:11.888Z,41.07
2019-05-22T10:45:11.876Z,41.32
2019-05-22T10:46:11.960Z,41.20
2019-05-22T10:47:11.882Z,41.43
2019-05-22T10:48:11.961Z,41.01
2019-05-22T10:49:11.881Z,40.95
2019-05-22T10:50:11.883Z,41.16
2019-05-22T10:51:11.873Z,41.36
2019-05-22T10:52:11.868Z,40.97
2019-05-22T10:53:11.856Z,41.13
2019-05-22T10:54:11.880Z,41.86
2019-05-22T10:55:11.936Z,40.83
2019-05-22T10:56:11.869Z,41.21
2019-05-22T10:57:11.826Z,40.81
2019-05-22T10:58:11.819Z,40.93
2019-05-22T10:59:11.824Z,41.37
2019-05-22T11:00:11.801Z,40.97
2019-05-22T11:01:11.791Z,40.98
2019-05-22T11:02:11.794Z,41.16
2019-05-22T11:03:11.790Z,41.40
2019-05-22T11:04:11.787Z,40.99
2019-05-22T11:05:11.788Z,40.78
2019-05-22T11:06:11.770Z,41.21
2019-05-22T11:07:11.765Z,41.16
2019-05-22T11:08:11.753Z,42.28
2019-05-22T11:09:11.759Z,40.98
2019-05-22T11:10:11.749Z,40.88
2019-05-22T11:11:11.729Z,41.04
2019-05-22T11:12:11.740Z,41.28
2019-05-22T11:13:11.731Z,40.72
2019-05-22T11:14:11.744Z,41.22
2019-05-22T11:15:11.713Z,41.29
2019-05-22T11:16:11.712Z,41.11
2019-05-22T11:17:11.729Z,41.70
2019-05-22T11:18:11.689Z,41.07
2019-05-22T11:19:12.166Z,44.25
2019-05-22T11:20:11.710Z,42.07
2019-05-22T11:21:11.739Z,40.92
2019-05-22T11:22:11.675Z,41.81
2019-05-22T11:23:11.665Z,41.42
2019-05-22T11:24:11.657Z,40.68
2019-05-22T11:25:11.654Z,40.98
2019-05-22T11:26:11.673Z,41.44
2019-05-22T11:27:11.708Z,49.51
2019-05-22T11:28:11.640Z,44.97
2019-05-22T11:29:11.628Z,43.01
2019-05-22T11:30:11.662Z,42.97
2019-05-22T11:31:11.640Z,43.39
2019-05-22T11:32:11.630Z,44.58
2019-05-22T11:33:11.659Z,42.84
2019-05-22T11:34:11.621Z,43.04
2019-05-22T11:35:11.613Z,44.02
2019-05-22T11:36:11.596Z,45.55
2019-05-22T11:37:11.636Z,43.09
2019-05-22T11:38:11.610Z,41.66
2019-05-22T11:39:11.585Z,40.92
2019-05-22T11:40:11.603Z,41.08
2019-05-22T11:41:11.559Z,40.91
2019-05-22T11:42:11.547Z,40.60
2019-05-22T11:43:11.551Z,40.94
2019-05-22T11:44:11.595Z,41.15
2019-05-22T11:45:11.532Z,40.98
2019-05-22T11:46:11.516Z,40.87
2019-05-22T11:47:11.506Z,40.97
2019-05-22T11:48:11.552Z,40.76
2019-05-22T11:49:11.505Z,40.88
2019-05-22T11:50:11.490Z,41.06
2019-05-22T11:51:11.495Z,41.45
2019-05-22T11:52:11.487Z,41.93
2019-05-22T11:53:11.473Z,41.39
2019-05-22T11:54:11.548Z,40.99
2019-05-22T11:55:11.461Z,41.00
2019-05-22T11:56:11.456Z,40.85
2019-05-22T11:57:11.434Z,41.27
2019-05-22T11:58:11.462Z,40.49
2019-05-22T11:59:11.422Z,41.28
2019-05-22T12:00:11.423Z,41.21
2019-05-22T12:01:11.410Z,40.92
2019-05-22T12:02:11.419Z,40.44
2019-05-22T12:03:11.416Z,41.82
2019-05-22T12:04:11.465Z,40.78
2019-05-22T12:05:11.482Z,40.71
2019-05-22T12:06:11.406Z,40.51
2019-05-22T12:07:11.393Z,40.64
2019-05-22T12:08:11.377Z,40.76
2019-05-22T12:09:11.368Z,41.48
2019-05-22T12:10:11.372Z,40.70
2019-05-22T12:11:11.430Z,41.33
2019-05-22T12:12:11.363Z,41.13
2019-05-22T12:13:11.787Z,41.74
2019-05-22T12:14:11.401Z,41.16
2019-05-22T12:15:11.347Z,40.80
2019-05-22T12:16:11.362Z,40.50
2019-05-22T12:17:11.364Z,40.82
2019-05-22T12:18:11.322Z,41.25
2019-05-22T12:19:11.318Z,42.14
2019-05-22T12:20:11.341Z,42.94
2019-05-22T12:21:11.300Z,40.86
2019-05-22T12:22:11.297Z,40.86
2019-05-22T12:23:11.342Z,40.97
2019-05-22T12:24:26.016Z,40.95
2019-05-22T12:25:12.267Z,40.54
2019-05-22T12:26:11.276Z,40.63
2019-05-22T12:27:11.276Z,40.87
2019-05-22T12:28:11.242Z,40.79
2019-05-22T12:29:11.235Z,40.37
2019-05-22T12:30:11.274Z,40.79
2019-05-22T12:31:11.237Z,41.24
2019-05-22T12:32:11.213Z,40.66
2019-05-22T12:33:13.987Z,40.85
2019-05-22T12:34:11.198Z,40.73
2019-05-22T12:35:11.212Z,40.67
2019-05-22T12:36:11.207Z,40.72
2019-05-22T12:37:11.219Z,40.90
2019-05-22T12:38:11.246Z,41.59
2019-05-22T12:39:11.209Z,41.43
2019-05-22T12:40:11.191Z,41.25
2019-05-22T12:41:11.182Z,41.47
2019-05-22T12:42:11.191Z,40.76
2019-05-22T12:43:11.191Z,40.67
2019-05-22T12:44:11.182Z,40.90
2019-05-22T12:45:11.161Z,41.06
2019-05-22T12:46:11.151Z,40.86
2019-05-22T12:47:11.130Z,41.39
2019-05-22T12:48:11.148Z,41.08
2019-05-22T12:49:11.125Z,40.95
2019-05-22T12:50:11.155Z,40.47
2019-05-22T12:51:11.113Z,40.46
2019-05-22T12:52:11.100Z,40.80